createdAt,value
2018-01-06T00:00:01.877Z,384.73
2018-01-06T00:02:30.205Z,380.77
2018-01-06T00:04:58.128Z,374.65
2018-01-06T00:07:25.901Z,397.90
2018-01-06T00:09:53.562Z,478.98
2018-01-06T00:12:21.600Z,524.53
2018-01-06T00:14:49.142Z,581.58
2018-01-06T00:17:17.625Z,562.58
2018-01-06T00:19:45.952Z,523.58
2018-01-06T00:22:13.636Z,493.25
2018-01-06T00:24:41.444Z,501.73
2018-01-06T00:27:10.441Z,581.03
2018-01-06T00:29:38.078Z,611.67
2018-01-06T00:32:06.493Z,540.05
2018-01-06T00:34:34.906Z,444.90
2018-01-06T00:37:03.694Z,493.42
2018-01-06T00:39:31.586Z,528.75
2018-01-06T00:41:59.210Z,558.75
2018-01-06T00:44:27.040Z,566.83
2018-01-06T00:46:54.797Z,510.65
2018-01-06T00:49:22.613Z,441.20
2018-01-06T00:51:50.977Z,455.05
2018-01-06T00:54:18.616Z,497.05
2018-01-06T00:56:46.314Z,469.58
2018-01-06T00:59:13.932Z,471.77
2018-01-06T01:01:41.558Z,436.42
2018-01-06T01:04:09.332Z,460.52
2018-01-06T01:06:37.169Z,487.05
2018-01-06T01:09:04.814Z,458.40
2018-01-06T01:11:32.460Z,437.55
2018-01-06T01:14:00.735Z,402.40
2018-01-06T01:16:28.500Z,451.17
2018-01-06T01:18:56.088Z,433.75
2018-01-06T01:21:24.654Z,434.23
2018-01-06T01:23:52.236Z,429.95
2018-01-06T01:26:20.258Z,371.55
2018-01-06T01:28:49.020Z,460.00
2018-01-06T01:31:16.636Z,411.55
2018-01-06T01:33:44.625Z,453.55
2018-01-06T01:36:13.346Z,460.73
2018-01-06T01:38:41.685Z,484.83
2018-01-06T01:41:09.326Z,540.60
2018-01-06T01:43:36.937Z,548.28
2018-01-06T01:46:04.663Z,593.28
2018-01-06T01:48:32.277Z,676.25
2018-01-06T01:51:00.304Z,710.53
2018-01-06T01:53:28.360Z,852.28
2018-01-06T01:55:56.725Z,814.55
2018-01-06T01:58:24.389Z,843.45
2018-01-06T02:00:52.193Z,859.22
2018-01-06T02:03:20.050Z,702.28
2018-01-06T02:05:47.830Z,597.63
2018-01-06T02:08:15.405Z,499.38
2018-01-06T02:10:43.685Z,441.62
2018-01-06T02:13:11.276Z,384.98
2018-01-06T02:15:39.166Z,480.08
2018-01-06T02:18:06.938Z,503.42
2018-01-06T02:20:35.523Z,497.08
2018-01-06T02:23:03.654Z,516.70
2018-01-06T02:25:33.106Z,475.38
2018-01-06T02:28:01.074Z,432.23
2018-01-06T02:30:28.719Z,506.20
2018-01-06T02:32:56.380Z,444.58
2018-01-06T02:35:24.003Z,514.65
2018-01-06T02:37:51.745Z,468.33
2018-01-06T02:40:19.599Z,430.90
2018-01-06T02:42:47.268Z,390.77
2018-01-06T02:45:14.883Z,373.30
2018-01-06T02:47:42.935Z,383.95
2018-01-06T02:50:10.559Z,431.40
2018-01-06T02:52:38.233Z,410.87
2018-01-06T02:55:06.045Z,379.73
2018-01-06T02:57:33.795Z,402.88
2018-01-06T03:00:02.528Z,456.70
2018-01-06T03:02:30.102Z,437.55
2018-01-06T03:04:57.725Z,416.05
2018-01-06T03:07:25.471Z,463.65
2018-01-06T03:09:53.098Z,432.23
2018-01-06T03:12:20.746Z,450.05
2018-01-06T03:14:48.538Z,411.60
2018-01-06T03:17:16.114Z,382.42
2018-01-06T03:19:43.705Z,329.98
2018-01-06T03:22:11.462Z,364.10
2018-01-06T03:24:39.095Z,409.83
2018-01-06T03:27:06.651Z,439.10
2018-01-06T03:29:34.431Z,445.85
2018-01-06T03:32:02.056Z,421.67
2018-01-06T03:34:30.502Z,406.15
2018-01-06T03:36:59.032Z,434.80
2018-01-06T03:39:27.315Z,392.35
2018-01-06T03:41:55.096Z,397.75
2018-01-06T03:44:22.712Z,377.38
2018-01-06T03:46:50.333Z,380.95
2018-01-06T03:49:18.536Z,402.67
2018-01-06T03:51:46.138Z,400.15
2018-01-06T03:54:13.952Z,383.17
2018-01-06T03:56:41.974Z,400.30
2018-01-06T03:59:09.937Z,395.80
2018-01-06T04:01:38.865Z,399.60
2018-01-06T04:04:06.646Z,361.17
2018-01-06T04:06:34.436Z,396.20
2018-01-06T04:09:02.072Z,392.55
2018-01-06T04:11:30.531Z,355.87
2018-01-06T04:13:58.137Z,362.90
2018-01-06T04:16:25.957Z,341.55
2018-01-06T04:18:54.024Z,323.98
2018-01-06T04:21:21.627Z,345.15
2018-01-06T04:23:49.450Z,307.70
2018-01-06T04:26:18.304Z,285.13
2018-01-06T04:28:46.553Z,284.05
2018-01-06T04:31:14.161Z,266.55
2018-01-06T04:33:41.999Z,274.90
2018-01-06T04:36:10.469Z,281.70
2018-01-06T04:38:38.156Z,261.05
2018-01-06T04:41:05.995Z,265.27
2018-01-06T04:43:34.598Z,253.68
2018-01-06T04:46:02.358Z,261.77
2018-01-06T04:48:30.163Z,253.80
2018-01-06T04:50:58.390Z,244.32
2018-01-06T04:53:26.190Z,241.23
2018-01-06T04:55:53.790Z,244.75
2018-01-06T04:58:21.412Z,250.62
2018-01-06T05:00:49.028Z,242.23
2018-01-06T05:03:16.586Z,242.20
2018-01-06T05:05:44.165Z,219.77
2018-01-06T05:08:11.972Z,205.40
2018-01-06T05:10:40.369Z,203.62
2018-01-06T05:13:08.284Z,192.50
2018-01-06T05:15:36.937Z,217.70
2018-01-06T05:18:04.696Z,225.32
2018-01-06T05:20:32.339Z,221.93
2018-01-06T05:23:00.635Z,230.52
2018-01-06T05:25:28.470Z,212.57
2018-01-06T05:27:56.374Z,209.27
2018-01-06T05:30:23.997Z,219.15
2018-01-06T05:32:51.626Z,234.98
2018-01-06T05:35:20.073Z,228.48
2018-01-06T05:37:53.058Z,219.85
2018-01-06T05:40:43.134Z,221.62
2018-01-06T05:46:11.123Z,188.90
2018-01-06T05:48:38.756Z,186.37
2018-01-06T05:51:06.390Z,185.93
2018-01-06T05:53:34.267Z,204.27
2018-01-06T05:56:02.167Z,211.43
2018-01-06T05:58:29.806Z,194.65
2018-01-06T06:00:57.476Z,230.90
2018-01-06T06:03:25.113Z,228.88
2018-01-06T06:05:52.901Z,218.85
2018-01-06T06:08:20.733Z,206.07
2018-01-06T06:10:49.963Z,205.82
2018-01-06T06:13:20.158Z,199.80
2018-01-06T06:15:52.676Z,216.20
2018-01-06T06:18:20.421Z,198.00
2018-01-06T06:20:48.251Z,217.15
2018-01-06T06:23:15.949Z,197.98
2018-01-06T06:25:43.619Z,186.75
2018-01-06T06:28:11.251Z,195.62
2018-01-06T06:30:39.654Z,186.60
2018-01-06T06:33:07.320Z,249.77
2018-01-06T06:35:34.979Z,316.85
2018-01-06T06:38:02.834Z,279.70
2018-01-06T06:40:30.625Z,275.13
2018-01-06T06:42:59.364Z,291.23
2018-01-06T06:45:27.924Z,341.95
2018-01-06T06:47:55.976Z,355.62
2018-01-06T06:50:23.835Z,346.30
2018-01-06T06:52:51.458Z,326.58
2018-01-06T06:55:21.069Z,289.30
2018-01-06T06:57:49.460Z,301.17
2018-01-06T07:00:17.458Z,266.02
2018-01-06T07:02:45.118Z,273.55
2018-01-06T07:05:13.728Z,264.27
2018-01-06T07:07:41.702Z,260.03
2018-01-06T07:10:09.313Z,258.90
2018-01-06T07:12:37.472Z,275.20
2018-01-06T07:15:05.092Z,267.67
2018-01-06T07:17:33.465Z,283.83
2018-01-06T07:20:02.080Z,273.43
2018-01-06T07:22:31.119Z,254.20
2018-01-06T07:24:58.885Z,269.57
2018-01-06T07:27:27.056Z,272.37
2018-01-06T07:29:55.763Z,291.33
2018-01-06T07:32:24.523Z,294.20
2018-01-06T07:34:53.790Z,286.77
2018-01-06T07:37:23.537Z,270.63
2018-01-06T07:39:51.465Z,313.73
2018-01-06T07:42:20.257Z,337.40
2018-01-06T07:44:48.438Z,311.60
2018-01-06T07:47:17.121Z,294.60
2018-01-06T07:49:44.895Z,307.20
2018-01-06T07:52:13.498Z,268.90
2018-01-06T07:54:41.176Z,268.53
2018-01-06T07:57:08.790Z,246.27
2018-01-06T07:59:36.960Z,244.23
2018-01-06T08:02:04.578Z,234.10
2018-01-06T08:04:32.466Z,231.10
2018-01-06T08:07:00.166Z,222.77
2018-01-06T08:09:27.977Z,207.50
2018-01-06T08:11:55.734Z,216.97
2018-01-06T08:14:23.326Z,222.67
2018-01-06T08:16:51.006Z,204.53
2018-01-06T08:19:19.327Z,219.27
2018-01-06T08:21:49.195Z,201.43
2018-01-06T08:24:16.954Z,202.83
2018-01-06T08:26:44.574Z,207.80
2018-01-06T08:29:12.685Z,206.50
2018-01-06T08:31:41.179Z,232.10
2018-01-06T08:34:08.758Z,204.50
2018-01-06T08:36:36.964Z,203.57
2018-01-06T08:39:04.830Z,214.53
2018-01-06T08:41:32.492Z,209.67
2018-01-06T08:44:00.128Z,183.23
2018-01-06T08:46:28.719Z,163.57
2018-01-06T08:48:56.377Z,173.60
2018-01-06T08:51:24.684Z,188.63
2018-01-06T08:53:53.038Z,194.87
2018-01-06T08:56:20.675Z,206.63
2018-01-06T08:58:48.293Z,205.60
2018-01-06T09:01:15.924Z,199.20
2018-01-06T09:03:43.504Z,210.00
2018-01-06T09:06:11.157Z,216.50
2018-01-06T09:08:38.764Z,215.50
2018-01-06T09:11:06.560Z,203.20
2018-01-06T09:13:34.240Z,214.97
2018-01-06T09:16:01.916Z,210.73
2018-01-06T09:18:29.613Z,163.03
2018-01-06T09:20:57.370Z,161.37
2018-01-06T09:23:25.534Z,176.50
2018-01-06T09:25:54.921Z,170.10
2018-01-06T09:28:22.636Z,150.73
2018-01-06T09:30:50.623Z,153.13
2018-01-06T09:33:22.212Z,152.20
2018-01-06T09:35:50.161Z,156.80
2018-01-06T09:38:17.940Z,155.20
2018-01-06T09:41:05.391Z,147.77
2018-01-06T09:43:33.943Z,138.27
2018-01-06T09:46:01.718Z,126.00
2018-01-06T09:48:29.644Z,118.03
2018-01-06T09:50:59.146Z,105.37
2018-01-06T09:53:26.990Z,102.50
2018-01-06T09:55:55.797Z,95.00
2018-01-06T09:58:24.258Z,109.53
2018-01-06T10:00:52.304Z,105.37
2018-01-06T10:03:20.055Z,97.27
2018-01-06T10:05:48.385Z,93.60
2018-01-06T10:08:17.341Z,102.07
2018-01-06T10:10:45.904Z,101.03
2018-01-06T10:13:13.781Z,89.63
2018-01-06T10:15:41.634Z,96.27
2018-01-06T10:18:10.394Z,87.97
2018-01-06T10:20:38.122Z,98.07
2018-01-06T10:23:05.840Z,85.80
2018-01-06T10:25:33.546Z,98.07
2018-01-06T10:28:01.202Z,90.33
2018-01-06T10:30:29.061Z,94.67
2018-01-06T10:32:57.277Z,84.37
2018-01-06T10:35:25.829Z,74.20
2018-01-06T10:37:53.766Z,94.97
2018-01-06T10:40:23.213Z,78.23
2018-01-06T10:42:52.012Z,86.00
2018-01-06T10:45:20.768Z,80.67
2018-01-06T10:47:49.265Z,74.00
2018-01-06T10:50:18.752Z,72.33
2018-01-06T10:52:47.541Z,73.43
2018-01-06T10:55:15.299Z,81.77
2018-01-06T10:57:43.536Z,77.87
2018-01-06T11:00:11.847Z,71.10
2018-01-06T11:02:40.382Z,75.77
2018-01-06T11:05:08.076Z,82.87
2018-01-06T11:07:36.501Z,80.57
2018-01-06T11:10:05.128Z,80.13
2018-01-06T11:15:07.510Z,109.43
2018-01-06T11:17:35.276Z,81.67
2018-01-06T11:20:03.796Z,75.57
2018-01-06T11:25:06.675Z,74.37
2018-01-06T11:27:34.410Z,79.47
2018-01-06T11:30:02.336Z,71.27
2018-01-06T11:32:30.237Z,74.10
2018-01-06T11:34:57.926Z,72.87
2018-01-06T11:37:26.058Z,69.50
2018-01-06T11:39:53.749Z,66.17
2018-01-06T11:42:21.906Z,66.83
2018-01-06T11:44:49.775Z,64.10
2018-01-06T11:47:18.979Z,68.43
2018-01-06T11:49:46.886Z,66.03
2018-01-06T11:52:15.633Z,62.47
2018-01-06T11:54:58.201Z,64.40
2018-01-06T11:57:25.989Z,75.30
2018-01-06T11:59:54.301Z,72.63
2018-01-06T12:02:21.954Z,68.13
2018-01-06T12:04:54.526Z,62.80
2018-01-06T12:07:22.546Z,56.97
2018-01-06T12:09:50.336Z,65.70
2018-01-06T12:12:18.838Z,72.53
2018-01-06T12:14:46.719Z,75.77
2018-01-06T12:17:14.329Z,76.33
2018-01-06T12:19:42.209Z,67.93
2018-01-06T12:22:09.858Z,74.30
2018-01-06T12:24:37.675Z,72.50
2018-01-06T12:27:05.374Z,76.53
2018-01-06T12:29:33.342Z,73.40
2018-01-06T12:32:01.172Z,71.17
2018-01-06T12:34:29.113Z,67.37
2018-01-06T12:36:57.980Z,67.47
2018-01-06T12:39:25.618Z,58.33
2018-01-06T12:42:10.715Z,60.20
2018-01-06T12:47:46.352Z,53.83
2018-01-06T12:50:22.575Z,62.70
2018-01-06T12:52:56.034Z,73.00
2018-01-06T12:55:24.071Z,71.23
2018-01-06T12:57:52.054Z,74.33
2018-01-06T13:00:21.286Z,59.17
2018-01-06T13:02:49.090Z,57.27
2018-01-06T13:05:16.931Z,60.20
2018-01-06T13:07:50.346Z,51.70
2018-01-06T13:10:18.022Z,58.87
2018-01-06T13:12:45.995Z,58.30
2018-01-06T13:15:13.838Z,52.63
2018-01-06T13:17:42.674Z,54.83
2018-01-06T13:20:10.812Z,65.13
2018-01-06T13:22:38.887Z,66.80
2018-01-06T13:25:06.542Z,55.93
2018-01-06T13:27:34.285Z,54.60
2018-01-06T13:30:02.954Z,58.83
2018-01-06T13:32:31.809Z,56.97
2018-01-06T13:34:59.828Z,55.87
2018-01-06T13:37:28.054Z,52.37
2018-01-06T13:39:55.977Z,57.37
2018-01-06T13:45:03.217Z,63.57
2018-01-06T13:47:31.042Z,62.67
2018-01-06T13:49:59.135Z,52.07
2018-01-06T13:52:29.139Z,56.17
2018-01-06T13:54:56.954Z,52.20
2018-01-06T13:57:24.776Z,51.33
2018-01-06T13:59:52.643Z,51.27
2018-01-06T14:02:22.090Z,56.40
2018-01-06T14:04:50.506Z,50.00
2018-01-06T14:07:18.192Z,46.47
2018-01-06T14:09:47.106Z,59.27
2018-01-06T14:12:18.600Z,63.20
2018-01-06T14:14:46.744Z,65.43
2018-01-06T14:17:14.441Z,80.03
2018-01-06T14:19:42.263Z,63.27
2018-01-06T14:22:09.930Z,65.83
2018-01-06T14:24:37.641Z,61.30
2018-01-06T14:27:05.562Z,63.37
2018-01-06T14:29:33.235Z,64.23
2018-01-06T14:32:01.129Z,82.63
2018-01-06T14:34:28.988Z,81.07
2018-01-06T14:36:57.158Z,87.67
2018-01-06T14:39:25.102Z,71.77
2018-01-06T14:41:53.382Z,86.77
2018-01-06T14:44:21.710Z,99.63
2018-01-06T14:46:49.380Z,73.10
2018-01-06T14:49:17.646Z,87.70
2018-01-06T14:51:45.600Z,108.77
2018-01-06T14:54:14.831Z,95.80
2018-01-06T14:56:42.724Z,110.63
2018-01-06T14:59:12.977Z,115.03
2018-01-06T15:01:42.937Z,96.90
2018-01-06T15:07:29.473Z,104.90
2018-01-06T15:09:57.399Z,176.07
2018-01-06T15:12:25.131Z,149.70
2018-01-06T15:14:52.733Z,142.90
2018-01-06T15:17:20.526Z,126.80
2018-01-06T15:19:49.032Z,142.90
2018-01-06T15:22:17.860Z,150.87
2018-01-06T15:24:45.483Z,128.87
2018-01-06T15:27:13.179Z,114.57
2018-01-06T15:29:40.884Z,140.53
2018-01-06T15:32:09.016Z,143.47
2018-01-06T15:34:36.611Z,153.70
2018-01-06T15:37:04.206Z,181.07
2018-01-06T15:39:31.828Z,181.73
2018-01-06T15:41:59.464Z,155.53
2018-01-06T15:44:27.067Z,201.57
2018-01-06T15:46:55.462Z,222.20
2018-01-06T15:49:23.104Z,230.50
2018-01-06T15:51:50.666Z,275.87
2018-01-06T15:54:18.257Z,344.80
2018-01-06T15:56:46.442Z,300.10
2018-01-06T15:59:14.245Z,318.27
2018-01-06T16:01:41.863Z,321.87
2018-01-06T16:04:09.964Z,297.07
2018-01-06T16:06:37.603Z,334.57
2018-01-06T16:09:05.332Z,391.90
2018-01-06T16:11:32.941Z,501.77
2018-01-06T16:14:00.528Z,472.83
2018-01-06T16:16:28.251Z,402.50
2018-01-06T16:18:55.861Z,427.73
2018-01-06T16:21:23.512Z,396.53
2018-01-06T16:23:51.534Z,394.37
2018-01-06T16:26:19.193Z,369.63
2018-01-06T16:28:46.910Z,386.07
2018-01-06T16:31:14.522Z,330.80
2018-01-06T16:33:42.114Z,391.53
2018-01-06T16:36:09.935Z,306.80
2018-01-06T16:38:38.472Z,273.40
2018-01-06T16:41:06.622Z,304.40
2018-01-06T16:43:34.184Z,313.93
2018-01-06T16:46:01.886Z,306.30
2018-01-06T16:48:29.487Z,216.47
2018-01-06T16:50:57.272Z,255.07
2018-01-06T16:53:24.889Z,306.73
2018-01-06T16:55:52.656Z,333.40
2018-01-06T16:58:20.227Z,251.33
2018-01-06T17:00:47.928Z,155.63
2018-01-06T17:03:15.490Z,141.10
2018-01-06T17:05:43.594Z,227.07
2018-01-06T17:08:11.218Z,252.87
2018-01-06T17:10:39.099Z,256.17
2018-01-06T17:13:11.886Z,247.20
2018-01-06T17:15:40.317Z,249.40
2018-01-06T17:18:08.092Z,230.53
2018-01-06T17:20:35.793Z,220.23
2018-01-06T17:23:03.457Z,224.00
2018-01-06T17:25:31.063Z,229.23
2018-01-06T17:27:59.628Z,217.03
2018-01-06T17:30:27.307Z,210.87
2018-01-06T17:32:55.510Z,227.97
2018-01-06T17:35:23.129Z,207.73
2018-01-06T17:37:51.572Z,211.37
2018-01-06T17:40:19.179Z,210.20
2018-01-06T17:42:46.914Z,221.27
2018-01-06T17:45:15.063Z,194.03
2018-01-06T17:47:42.818Z,196.87
2018-01-06T17:50:11.872Z,188.03
2018-01-06T17:52:41.101Z,203.87
2018-01-06T17:55:11.390Z,194.80
2018-01-06T17:57:44.080Z,219.33
2018-01-06T18:00:13.273Z,211.60
2018-01-06T18:02:42.570Z,211.97
2018-01-06T18:05:13.018Z,212.73
2018-01-06T18:07:59.110Z,202.07
2018-01-06T18:10:28.610Z,194.03
2018-01-06T18:12:58.619Z,165.07
2018-01-06T18:15:30.713Z,212.07
2018-01-06T18:17:59.651Z,250.73
2018-01-06T18:20:30.517Z,249.83
2018-01-06T18:22:59.872Z,221.67
2018-01-06T18:25:30.202Z,241.20
2018-01-06T18:28:25.443Z,215.70
2018-01-06T18:30:55.217Z,265.10
2018-01-06T18:33:27.704Z,226.20
2018-01-06T18:35:58.472Z,204.80
2018-01-06T18:38:29.249Z,202.35
2018-01-06T18:41:09.049Z,175.23
2018-01-06T18:47:10.024Z,206.80
2018-01-06T18:53:13.369Z,258.73
2018-01-06T18:56:15.352Z,260.33
2018-01-06T19:02:51.734Z,256.17
2018-01-06T19:12:33.425Z,356.83
2018-01-06T19:15:01.480Z,335.25
2018-01-06T19:21:18.016Z,323.87
2018-01-06T19:23:46.034Z,342.03
2018-01-06T19:26:13.814Z,314.20
2018-01-06T19:28:41.707Z,316.38
2018-01-06T19:31:10.354Z,319.57
2018-01-06T19:33:38.002Z,314.95
2018-01-06T19:36:05.794Z,307.48
2018-01-06T19:39:07.983Z,287.70
2018-01-06T19:46:50.094Z,287.63
2018-01-06T19:49:19.059Z,268.33
2018-01-06T20:01:12.715Z,243.98
2018-01-06T20:03:41.344Z,245.02
2018-01-06T20:06:09.346Z,258.67
2018-01-06T20:08:37.103Z,264.95
2018-01-06T20:11:04.922Z,265.92
2018-01-06T20:13:32.963Z,282.50
2018-01-06T20:16:03.775Z,246.85
2018-01-06T20:18:32.250Z,292.03
2018-01-06T20:21:02.338Z,304.30
2018-01-06T20:23:30.164Z,286.75
2018-01-06T20:25:58.053Z,265.27
2018-01-06T20:28:26.946Z,290.27
2018-01-06T20:30:54.657Z,271.35
2018-01-06T20:33:25.859Z,258.90
2018-01-06T20:35:53.565Z,243.95
2018-01-06T20:38:21.219Z,236.50
2018-01-06T20:40:49.272Z,241.68
2018-01-06T20:43:23.481Z,275.45
2018-01-06T20:45:52.007Z,264.02
2018-01-06T20:48:19.646Z,275.08
2018-01-06T20:50:48.550Z,268.08
2018-01-06T20:53:16.859Z,266.77
2018-01-06T20:56:32.647Z,256.27
2018-01-06T20:59:01.363Z,293.33
2018-01-06T21:04:10.710Z,266.52
2018-01-06T21:06:38.700Z,254.27
2018-01-06T21:11:39.230Z,295.77
2018-01-06T21:14:07.783Z,276.23
2018-01-06T21:16:35.753Z,287.67
2018-01-06T21:19:03.550Z,290.55
2018-01-06T21:21:37.968Z,318.15
2018-01-06T21:26:53.808Z,306.23
2018-01-06T21:29:22.503Z,300.62
2018-01-06T21:31:50.328Z,310.73
2018-01-06T21:34:18.272Z,322.77
2018-01-06T21:36:45.913Z,304.55
2018-01-06T21:41:47.056Z,331.50
2018-01-06T21:44:14.795Z,390.80
2018-01-06T21:46:42.567Z,348.55
2018-01-06T21:49:10.722Z,392.35
2018-01-06T21:51:38.983Z,417.25
2018-01-06T21:54:07.309Z,446.98
2018-01-06T21:56:35.208Z,430.58
2018-01-06T21:59:03.118Z,426.95
2018-01-06T22:01:30.784Z,525.97
2018-01-06T22:03:59.135Z,505.40
2018-01-06T22:10:38.580Z,530.28
2018-01-06T22:13:07.334Z,524.88
2018-01-06T22:16:32.077Z,568.25
2018-01-06T22:19:35.444Z,570.15
2018-01-06T22:22:03.273Z,561.38
2018-01-06T22:24:30.891Z,517.70
2018-01-06T22:27:05.665Z,621.92
2018-01-06T22:29:49.617Z,666.80
2018-01-06T22:32:19.051Z,591.35
2018-01-06T22:34:53.742Z,513.00
2018-01-06T22:43:17.728Z,468.45
2018-01-06T22:45:48.025Z,467.30
2018-01-06T22:48:16.085Z,461.45
2018-01-06T22:50:45.379Z,450.87
2018-01-06T22:53:13.275Z,449.62
2018-01-06T22:55:41.237Z,457.20
2018-01-06T22:58:15.647Z,450.30
2018-01-06T23:00:50.281Z,486.77
2018-01-06T23:03:22.285Z,476.63
2018-01-06T23:08:32.565Z,453.12
2018-01-06T23:11:01.937Z,432.67
2018-01-06T23:13:30.011Z,417.67
2018-01-06T23:15:57.603Z,440.88
2018-01-06T23:18:26.112Z,430.37
2018-01-06T23:20:55.788Z,440.75
2018-01-06T23:23:23.831Z,421.20
2018-01-06T23:25:51.451Z,453.88
2018-01-06T23:28:19.100Z,460.83
2018-01-06T23:30:46.799Z,438.20
2018-01-06T23:33:15.507Z,479.58
2018-01-06T23:35:44.450Z,450.50
2018-01-06T23:38:12.212Z,435.37
2018-01-06T23:40:40.125Z,447.13
2018-01-06T23:43:08.007Z,499.15
2018-01-06T23:45:35.856Z,525.05
2018-01-06T23:48:03.482Z,531.35
2018-01-06T23:50:31.361Z,535.78
2018-01-06T23:52:59.739Z,486.58
2018-01-06T23:55:29.023Z,489.33
2018-01-06T23:58:00.280Z,428.48
